createdAt,value
2017-09-20T00:00:39.834Z,0
2017-09-20T00:01:40.139Z,0
2017-09-20T00:02:40.132Z,0
2017-09-20T00:03:40.117Z,0
2017-09-20T00:04:40.112Z,0
2017-09-20T00:05:40.098Z,0
2017-09-20T00:06:40.103Z,0
2017-09-20T00:07:40.095Z,0
2017-09-20T00:08:40.072Z,0
2017-09-20T00:09:40.072Z,0
2017-09-20T00:10:40.057Z,0
2017-09-20T00:11:39.737Z,0
2017-09-20T00:12:39.729Z,0
2017-09-20T00:13:40.025Z,0
2017-09-20T00:14:40.023Z,0
2017-09-20T00:15:39.702Z,0
2017-09-20T00:16:40.021Z,0
2017-09-20T00:17:39.999Z,0
2017-09-20T00:18:39.984Z,0
2017-09-20T00:19:39.974Z,0
2017-09-20T00:20:39.661Z,0
2017-09-20T00:21:39.648Z,0
2017-09-20T00:22:39.637Z,0
2017-09-20T00:23:39.934Z,0
2017-09-20T00:24:39.959Z,0
2017-09-20T00:25:39.932Z,0
2017-09-20T00:26:39.605Z,0
2017-09-20T00:27:39.909Z,0
2017-09-20T00:28:39.897Z,0
2017-09-20T00:29:39.885Z,0
2017-09-20T00:30:39.882Z,0
2017-09-20T00:31:39.869Z,0
2017-09-20T00:32:39.861Z,0
2017-09-20T00:33:39.843Z,0
2017-09-20T00:34:39.843Z,0
2017-09-20T00:35:39.867Z,0
2017-09-20T00:36:39.824Z,0
2017-09-20T00:37:39.813Z,0
2017-09-20T00:38:39.812Z,0
2017-09-20T00:39:39.796Z,0
2017-09-20T00:40:38.860Z,0
2017-09-20T00:41:39.780Z,0
2017-09-20T00:42:39.766Z,0
2017-09-20T00:43:39.760Z,0
2017-09-20T00:44:39.747Z,0
2017-09-20T00:45:39.435Z,0
2017-09-20T00:46:39.738Z,0
2017-09-20T00:47:39.730Z,0
2017-09-20T00:48:39.408Z,0
2017-09-20T00:49:39.712Z,0
2017-09-20T00:50:39.908Z,0
2017-09-20T00:51:39.685Z,0
2017-09-20T00:52:39.675Z,0
2017-09-20T00:53:39.366Z,0
2017-09-20T00:54:39.662Z,0
2017-09-20T00:55:39.652Z,0
2017-09-20T00:56:39.676Z,0
2017-09-20T00:57:39.633Z,0
2017-09-20T00:58:39.623Z,0
2017-09-20T00:59:39.620Z,0
2017-09-20T01:00:39.599Z,0
2017-09-20T01:01:39.595Z,0
2017-09-20T01:02:39.591Z,0
2017-09-20T01:03:39.575Z,0
2017-09-20T01:04:39.261Z,0
2017-09-20T01:05:39.249Z,0
2017-09-20T01:06:39.545Z,0
2017-09-20T01:07:39.536Z,0
2017-09-20T01:08:39.225Z,0
2017-09-20T01:09:39.218Z,0
2017-09-20T01:10:39.523Z,0
2017-09-20T01:11:39.510Z,0
2017-09-20T01:12:39.496Z,0
2017-09-20T01:13:39.180Z,0
2017-09-20T01:14:39.475Z,0
2017-09-20T01:15:39.468Z,0
2017-09-20T01:16:39.456Z,0
2017-09-20T01:17:39.445Z,0
2017-09-20T01:18:39.435Z,0
2017-09-20T01:19:39.423Z,0
2017-09-20T01:20:39.411Z,0
2017-09-20T01:21:39.407Z,0
2017-09-20T01:22:38.782Z,0
2017-09-20T01:23:39.082Z,0
2017-09-20T01:24:39.068Z,0
2017-09-20T01:25:39.068Z,0
2017-09-20T01:26:39.051Z,0
2017-09-20T01:27:39.362Z,0
2017-09-20T01:28:39.347Z,0
2017-09-20T01:29:39.331Z,0
2017-09-20T01:30:39.322Z,0
2017-09-20T01:31:39.011Z,0
2017-09-20T01:32:39.299Z,0
2017-09-20T01:33:39.294Z,0
2017-09-20T01:34:39.292Z,0
2017-09-20T01:35:39.277Z,0
2017-09-20T01:36:38.957Z,0
2017-09-20T01:37:38.952Z,0
2017-09-20T01:38:39.245Z,0
2017-09-20T01:39:39.236Z,0
2017-09-20T01:40:38.932Z,0
2017-09-20T01:41:39.224Z,0
2017-09-20T01:42:39.208Z,0
2017-09-20T01:43:39.206Z,0
2017-09-20T01:44:39.193Z,0
2017-09-20T01:45:39.183Z,0
2017-09-20T01:46:39.181Z,0
2017-09-20T01:47:38.852Z,0
2017-09-20T01:48:39.154Z,0
2017-09-20T01:49:39.149Z,0
2017-09-20T01:50:39.137Z,0
2017-09-20T01:51:39.124Z,0
2017-09-20T01:52:38.502Z,0
2017-09-20T01:53:38.497Z,0
2017-09-20T01:54:39.100Z,0
2017-09-20T01:55:39.095Z,0
2017-09-20T01:56:39.077Z,0
2017-09-20T01:57:39.068Z,0
2017-09-20T01:58:38.756Z,0
2017-09-20T01:59:38.743Z,0
2017-09-20T02:00:39.042Z,0
2017-09-20T02:01:38.728Z,0
2017-09-20T02:02:39.018Z,0
2017-09-20T02:03:38.413Z,0
2017-09-20T02:04:39.003Z,0
2017-09-20T02:05:38.996Z,0
2017-09-20T02:06:38.983Z,0
2017-09-20T02:07:38.980Z,0
2017-09-20T02:08:38.975Z,0
2017-09-20T02:09:38.646Z,0
2017-09-20T02:10:38.954Z,0
2017-09-20T02:11:38.630Z,0
2017-09-20T02:12:38.622Z,0
2017-09-20T02:13:38.922Z,0
2017-09-20T02:14:38.915Z,0
2017-09-20T02:15:38.899Z,0
2017-09-20T02:16:38.896Z,0
2017-09-20T02:17:38.885Z,0
2017-09-20T02:18:38.598Z,0
2017-09-20T02:19:38.578Z,0
2017-09-20T02:20:38.859Z,0
2017-09-20T02:21:38.848Z,0
2017-09-20T02:22:38.841Z,0
2017-09-20T02:23:38.857Z,0
2017-09-20T02:24:38.506Z,0
2017-09-20T02:25:38.807Z,0
2017-09-20T02:26:38.798Z,0
2017-09-20T02:27:38.481Z,0
2017-09-20T02:28:38.782Z,0
2017-09-20T02:29:38.804Z,0
2017-09-20T02:30:38.766Z,0
2017-09-20T02:31:38.763Z,0
2017-09-20T02:32:38.739Z,0
2017-09-20T02:33:38.733Z,0
2017-09-20T02:34:38.718Z,0
2017-09-20T02:35:38.712Z,0
2017-09-20T02:36:38.084Z,0
2017-09-20T02:37:38.707Z,0
2017-09-20T02:38:38.371Z,0
2017-09-20T02:39:38.679Z,0
2017-09-20T02:40:38.665Z,0
2017-09-20T02:41:38.649Z,0
2017-09-20T02:42:38.648Z,0
2017-09-20T02:43:38.634Z,0
2017-09-20T02:44:38.634Z,0
2017-09-20T02:45:38.316Z,0
2017-09-20T02:46:38.605Z,0
2017-09-20T02:47:38.289Z,0
2017-09-20T02:48:38.587Z,0
2017-09-20T02:49:38.267Z,0
2017-09-20T02:50:38.570Z,0
2017-09-20T02:51:38.254Z,0
2017-09-20T02:52:38.554Z,0
2017-09-20T02:53:38.535Z,0
2017-09-20T02:54:38.535Z,0
2017-09-20T02:55:38.518Z,0
2017-09-20T02:56:38.505Z,0
2017-09-20T02:57:38.185Z,0
2017-09-20T02:58:38.178Z,0
2017-09-20T02:59:37.861Z,0
2017-09-20T03:00:38.469Z,0
2017-09-20T03:01:38.150Z,0
2017-09-20T03:02:38.448Z,0
2017-09-20T03:03:38.453Z,0
2017-09-20T03:04:38.161Z,0
2017-09-20T03:05:38.427Z,0
2017-09-20T03:06:38.098Z,0
2017-09-20T03:07:38.095Z,0
2017-09-20T03:08:38.424Z,0
2017-09-20T03:09:38.417Z,0
2017-09-20T03:10:38.373Z,0
2017-09-20T03:11:38.560Z,0
2017-09-20T03:12:38.352Z,0
2017-09-20T03:13:38.345Z,0
2017-09-20T03:14:38.328Z,0
2017-09-20T03:15:38.325Z,0
2017-09-20T03:16:38.310Z,0
2017-09-20T03:17:38.306Z,0
2017-09-20T03:18:38.302Z,0
2017-09-20T03:19:38.285Z,0
2017-09-20T03:20:38.274Z,0
2017-09-20T03:21:38.264Z,0
2017-09-20T03:22:38.293Z,0
2017-09-20T03:23:38.248Z,0
2017-09-20T03:24:38.237Z,0
2017-09-20T03:25:38.230Z,0
2017-09-20T03:26:38.212Z,0
2017-09-20T03:27:38.223Z,0
2017-09-20T03:28:38.195Z,0
2017-09-20T03:29:38.189Z,0
2017-09-20T03:30:38.180Z,0
2017-09-20T03:31:38.177Z,0
2017-09-20T03:32:38.162Z,0
2017-09-20T03:33:38.147Z,0
2017-09-20T03:34:38.142Z,0
2017-09-20T03:35:38.129Z,0
2017-09-20T03:36:37.805Z,0
2017-09-20T03:37:37.793Z,0
2017-09-20T03:38:37.793Z,0
2017-09-20T03:39:38.091Z,0
2017-09-20T03:40:38.082Z,0
2017-09-20T03:41:37.764Z,0
2017-09-20T03:42:38.064Z,0
2017-09-20T03:43:37.745Z,0
2017-09-20T03:44:37.730Z,0
2017-09-20T03:45:38.039Z,0
2017-09-20T03:46:37.405Z,0
2017-09-20T03:47:38.011Z,0
2017-09-20T03:48:38.004Z,0
2017-09-20T03:49:37.996Z,0
2017-09-20T03:50:37.984Z,0
2017-09-20T03:51:37.979Z,0
2017-09-20T03:52:37.970Z,0
2017-09-20T03:53:37.651Z,0
2017-09-20T03:54:37.637Z,0
2017-09-20T03:55:37.937Z,0
2017-09-20T03:56:37.925Z,0
2017-09-20T03:57:37.612Z,0
2017-09-20T03:58:37.900Z,0
2017-09-20T03:59:37.584Z,0
2017-09-20T04:00:37.599Z,0
2017-09-20T04:01:37.565Z,0
2017-09-20T04:02:37.866Z,0
2017-09-20T04:03:37.544Z,0
2017-09-20T04:04:37.849Z,0
2017-09-20T04:05:37.528Z,0
2017-09-20T04:06:37.824Z,0
2017-09-20T04:07:37.510Z,0
2017-09-20T04:08:37.817Z,0
2017-09-20T04:09:37.806Z,0
2017-09-20T04:10:37.476Z,0
2017-09-20T04:11:37.470Z,0
2017-09-20T04:12:37.457Z,0
2017-09-20T04:13:37.143Z,0
2017-09-20T04:14:37.758Z,0
2017-09-20T04:15:37.741Z,0
2017-09-20T04:16:37.112Z,0
2017-09-20T04:17:37.723Z,0
2017-09-20T04:18:37.706Z,0
2017-09-20T04:19:37.705Z,0
2017-09-20T04:20:37.686Z,0
2017-09-20T04:21:37.677Z,0
2017-09-20T04:22:37.675Z,0
2017-09-20T04:23:37.665Z,0
2017-09-20T04:24:37.650Z,0
2017-09-20T04:25:37.639Z,0
2017-09-20T04:26:37.644Z,0
2017-09-20T04:27:37.626Z,0
2017-09-20T04:28:36.992Z,0
2017-09-20T04:29:37.656Z,0
2017-09-20T04:30:37.601Z,0
2017-09-20T04:31:37.594Z,0
2017-09-20T04:32:37.573Z,0
2017-09-20T04:33:37.571Z,0
2017-09-20T04:34:37.555Z,0
2017-09-20T04:35:36.922Z,0
2017-09-20T04:36:37.225Z,0
2017-09-20T04:37:37.524Z,0
2017-09-20T04:38:37.523Z,0
2017-09-20T04:39:37.195Z,0
2017-09-20T04:40:37.498Z,0
2017-09-20T04:41:37.489Z,0
2017-09-20T04:42:37.486Z,0
2017-09-20T04:43:37.468Z,0
2017-09-20T04:44:37.459Z,0
2017-09-20T04:45:37.450Z,5
2017-09-20T04:46:37.449Z,5
2017-09-20T04:47:37.433Z,5
2017-09-20T04:48:37.424Z,5
2017-09-20T04:49:36.792Z,5
2017-09-20T04:50:37.401Z,5
2017-09-20T04:51:36.777Z,5
2017-09-20T04:52:37.420Z,5
2017-09-20T04:53:37.378Z,5
2017-09-20T04:54:36.752Z,5
2017-09-20T04:55:37.072Z,5
2017-09-20T04:56:37.051Z,10
2017-09-20T04:57:37.037Z,10
2017-09-20T04:58:37.335Z,10
2017-09-20T04:59:37.329Z,10
2017-09-20T05:00:37.319Z,10
2017-09-20T05:01:36.996Z,10
2017-09-20T05:02:37.298Z,15
2017-09-20T05:03:36.993Z,15
2017-09-20T05:04:37.297Z,15
2017-09-20T05:05:37.278Z,15
2017-09-20T05:06:36.954Z,15
2017-09-20T05:07:37.257Z,20
2017-09-20T05:08:37.247Z,20
2017-09-20T05:09:37.242Z,20
2017-09-20T05:10:37.229Z,20
2017-09-20T05:11:37.225Z,20
2017-09-20T05:12:37.235Z,20
2017-09-20T05:13:36.902Z,25
2017-09-20T05:14:36.892Z,25
2017-09-20T05:15:36.887Z,25
2017-09-20T05:16:37.181Z,25
2017-09-20T05:17:36.245Z,25
2017-09-20T05:18:36.856Z,25
2017-09-20T05:19:36.851Z,25
2017-09-20T05:20:36.530Z,25
2017-09-20T05:21:37.145Z,30
2017-09-20T05:22:37.140Z,30
2017-09-20T05:23:37.127Z,30
2017-09-20T05:24:36.811Z,30
2017-09-20T05:25:37.106Z,30
2017-09-20T05:26:37.105Z,30
2017-09-20T05:27:37.094Z,35
2017-09-20T05:28:36.774Z,35
2017-09-20T05:29:37.074Z,35
2017-09-20T05:30:37.064Z,35
2017-09-20T05:31:37.059Z,40
2017-09-20T05:32:37.051Z,40
2017-09-20T05:33:37.048Z,45
2017-09-20T05:34:36.733Z,45
2017-09-20T05:35:37.023Z,50
2017-09-20T05:36:36.713Z,50
2017-09-20T05:37:37.009Z,50
2017-09-20T05:38:37.007Z,50
2017-09-20T05:39:36.993Z,55
2017-09-20T05:40:36.988Z,50
2017-09-20T05:41:36.982Z,50
2017-09-20T05:42:36.979Z,50
2017-09-20T05:43:36.968Z,55
2017-09-20T05:44:36.955Z,55
2017-09-20T05:45:36.945Z,55
2017-09-20T05:46:36.637Z,55
2017-09-20T05:47:36.933Z,55
2017-09-20T05:48:36.307Z,60
2017-09-20T05:49:36.922Z,60
2017-09-20T05:50:36.914Z,60
2017-09-20T05:51:36.904Z,60
2017-09-20T05:52:36.898Z,65
2017-09-20T05:53:36.892Z,65
2017-09-20T05:54:36.576Z,65
2017-09-20T05:55:36.567Z,70
2017-09-20T05:56:36.869Z,75
2017-09-20T05:57:36.557Z,75
2017-09-20T05:58:36.238Z,80
2017-09-20T05:59:36.537Z,85
2017-09-20T06:00:36.539Z,90
2017-09-20T06:01:36.863Z,90
2017-09-20T06:02:36.517Z,95
2017-09-20T06:03:36.816Z,95
2017-09-20T06:04:36.192Z,95
2017-09-20T06:05:36.805Z,100
2017-09-20T06:06:36.174Z,100
2017-09-20T06:07:36.477Z,105
2017-09-20T06:08:36.474Z,105
2017-09-20T06:09:36.467Z,110
2017-09-20T06:10:36.462Z,110
2017-09-20T06:11:36.455Z,115
2017-09-20T06:12:36.749Z,115
2017-09-20T06:13:36.137Z,115
2017-09-20T06:14:36.430Z,115
2017-09-20T06:15:36.734Z,115
2017-09-20T06:16:36.422Z,120
2017-09-20T06:17:36.411Z,120
2017-09-20T06:18:36.711Z,125
2017-09-20T06:19:36.397Z,125
2017-09-20T06:20:36.693Z,125
2017-09-20T06:21:36.074Z,125
2017-09-20T06:22:36.373Z,125
2017-09-20T06:23:36.056Z,125
2017-09-20T06:24:35.746Z,130
2017-09-20T06:25:35.426Z,130
2017-09-20T06:26:36.345Z,130
2017-09-20T06:27:35.730Z,135
2017-09-20T06:28:36.361Z,135
2017-09-20T06:29:36.331Z,140
2017-09-20T06:30:36.325Z,140
2017-09-20T06:31:35.698Z,140
2017-09-20T06:32:36.303Z,140
2017-09-20T06:33:36.302Z,140
2017-09-20T06:34:35.993Z,140
2017-09-20T06:35:36.593Z,140
2017-09-20T06:36:36.280Z,140
2017-09-20T06:37:36.579Z,140
2017-09-20T06:38:36.578Z,135
2017-09-20T06:39:36.260Z,135
2017-09-20T06:40:36.259Z,140
2017-09-20T06:41:36.252Z,140
2017-09-20T06:42:36.551Z,145
2017-09-20T06:43:36.546Z,150
2017-09-20T06:44:36.529Z,150
2017-09-20T06:45:36.228Z,150
2017-09-20T06:46:36.212Z,155
2017-09-20T06:47:36.205Z,160
2017-09-20T06:48:36.512Z,170
2017-09-20T06:49:36.195Z,180
2017-09-20T06:50:36.184Z,200
2017-09-20T06:51:36.182Z,220
2017-09-20T06:52:35.556Z,255
2017-09-20T06:53:35.857Z,280
2017-09-20T06:54:36.166Z,285
2017-09-20T06:55:35.852Z,275
2017-09-20T06:56:35.843Z,260
2017-09-20T06:57:36.143Z,250
2017-09-20T06:58:36.033Z,245
2017-09-20T06:59:35.827Z,240
2017-09-20T07:00:35.811Z,235
2017-09-20T07:01:36.119Z,240
2017-09-20T07:02:36.366Z,240
2017-09-20T07:03:36.107Z,245
2017-09-20T07:04:36.097Z,240
2017-09-20T07:05:36.109Z,235
2017-09-20T07:06:36.401Z,220
2017-09-20T07:07:36.396Z,210
2017-09-20T07:08:36.082Z,210
2017-09-20T07:09:36.072Z,220
2017-09-20T07:10:36.381Z,235
2017-09-20T07:11:36.372Z,255
2017-09-20T07:12:36.365Z,270
2017-09-20T07:13:36.361Z,295
2017-09-20T07:14:36.047Z,325
2017-09-20T07:15:36.351Z,425
2017-09-20T07:16:36.343Z,775
2017-09-20T07:17:36.032Z,560
2017-09-20T07:18:36.031Z,1075
2017-09-20T07:19:36.324Z,1145
2017-09-20T07:20:36.013Z,900
2017-09-20T07:21:36.007Z,940
2017-09-20T07:22:36.001Z,740
2017-09-20T07:23:36.303Z,675
2017-09-20T07:24:35.999Z,685
2017-09-20T07:25:35.685Z,545
2017-09-20T07:26:36.294Z,465
2017-09-20T07:27:36.303Z,465
2017-09-20T07:28:35.983Z,460
2017-09-20T07:29:36.291Z,405
2017-09-20T07:30:35.975Z,390
2017-09-20T07:31:35.974Z,355
2017-09-20T07:32:35.667Z,295
2017-09-20T07:33:35.962Z,265
2017-09-20T07:34:36.279Z,250
2017-09-20T07:35:35.651Z,250
2017-09-20T07:36:36.266Z,330
2017-09-20T07:37:35.963Z,415
2017-09-20T07:38:35.655Z,580
2017-09-20T07:39:36.263Z,690
2017-09-20T07:40:36.255Z,665
2017-09-20T07:41:36.247Z,700
2017-09-20T07:42:36.139Z,790
2017-09-20T07:43:36.674Z,630
2017-09-20T07:44:36.248Z,890
2017-09-20T07:45:35.941Z,695
2017-09-20T07:46:35.932Z,830
2017-09-20T07:47:35.628Z,830
2017-09-20T07:48:36.240Z,840
2017-09-20T07:49:36.238Z,965
2017-09-20T07:50:36.236Z,855
2017-09-20T07:51:36.232Z,860
2017-09-20T07:52:36.235Z,960
2017-09-20T07:53:36.230Z,995
2017-09-20T07:54:36.234Z,995
2017-09-20T07:55:36.234Z,1005
2017-09-20T07:56:36.262Z,1000
2017-09-20T07:57:35.930Z,990
2017-09-20T07:58:35.608Z,930
2017-09-20T07:59:36.233Z,565
2017-09-20T08:00:36.227Z,315
2017-09-20T08:01:36.239Z,315
2017-09-20T08:02:35.918Z,330
2017-09-20T08:03:35.612Z,330
2017-09-20T08:04:36.227Z,325
2017-09-20T08:05:35.610Z,315
2017-09-20T08:06:35.929Z,310
2017-09-20T08:07:35.920Z,315
2017-09-20T08:08:36.235Z,305
2017-09-20T08:09:36.227Z,295
2017-09-20T08:10:35.917Z,305
2017-09-20T08:11:35.914Z,305
2017-09-20T08:12:35.915Z,300
2017-09-20T08:13:35.911Z,305
2017-09-20T08:14:35.908Z,305
2017-09-20T08:15:35.907Z,320
2017-09-20T08:16:36.221Z,315
2017-09-20T08:17:36.209Z,315
2017-09-20T08:18:35.592Z,310
2017-09-20T08:19:35.896Z,310
2017-09-20T08:20:35.898Z,310
2017-09-20T08:21:35.586Z,310
2017-09-20T08:22:36.212Z,315
2017-09-20T08:23:35.890Z,310
2017-09-20T08:24:35.885Z,305
2017-09-20T08:25:35.884Z,305
2017-09-20T08:26:35.896Z,315
2017-09-20T08:27:36.188Z,310
2017-09-20T08:28:35.875Z,345
2017-09-20T08:29:35.884Z,525
2017-09-20T08:30:35.878Z,540
2017-09-20T08:31:35.869Z,460
2017-09-20T08:32:35.862Z,395
2017-09-20T08:33:35.864Z,400
2017-09-20T08:34:35.860Z,475
2017-09-20T08:35:35.855Z,525
2017-09-20T08:36:35.851Z,525
2017-09-20T08:37:35.856Z,430
2017-09-20T08:38:35.845Z,385
2017-09-20T08:39:35.842Z,350
2017-09-20T08:40:35.536Z,355
2017-09-20T08:41:35.839Z,360
2017-09-20T08:42:35.525Z,370
2017-09-20T08:43:35.835Z,365
2017-09-20T08:44:35.524Z,390
2017-09-20T08:45:35.560Z,475
2017-09-20T08:46:35.517Z,465
2017-09-20T08:47:35.828Z,420
2017-09-20T08:48:36.130Z,390
2017-09-20T08:49:35.815Z,350
2017-09-20T08:50:35.819Z,330
2017-09-20T08:51:35.500Z,305
2017-09-20T08:52:36.112Z,285
2017-09-20T08:53:35.806Z,305
2017-09-20T08:54:35.800Z,300
2017-09-20T08:55:35.799Z,290
2017-09-20T08:56:36.354Z,280
2017-09-20T08:57:35.796Z,275
2017-09-20T08:58:35.789Z,270
2017-09-20T08:59:35.785Z,265
2017-09-20T09:00:35.791Z,265
2017-09-20T09:01:35.792Z,265
2017-09-20T09:02:35.779Z,255
2017-09-20T09:03:35.784Z,250
2017-09-20T09:04:35.165Z,250
2017-09-20T09:05:35.769Z,260
2017-09-20T09:06:35.773Z,270
2017-09-20T09:07:35.459Z,275
2017-09-20T09:08:35.456Z,275
2017-09-20T09:09:35.763Z,270
2017-09-20T09:10:35.763Z,275
2017-09-20T09:11:35.751Z,265
2017-09-20T09:12:35.755Z,260
2017-09-20T09:13:35.445Z,265
2017-09-20T09:14:36.060Z,290
2017-09-20T09:15:35.440Z,285
2017-09-20T09:16:35.427Z,300
2017-09-20T09:17:35.738Z,335
2017-09-20T09:18:35.733Z,325
2017-09-20T09:19:35.729Z,325
2017-09-20T09:20:35.725Z,375
2017-09-20T09:21:35.722Z,445
2017-09-20T09:22:35.722Z,440
2017-09-20T09:23:36.062Z,425
2017-09-20T09:24:35.718Z,385
2017-09-20T09:25:35.712Z,380
2017-09-20T09:26:36.052Z,385
2017-09-20T09:27:35.955Z,370
2017-09-20T09:28:35.703Z,345
2017-09-20T09:29:35.397Z,355
2017-09-20T09:30:35.697Z,390
2017-09-20T09:31:35.383Z,375
2017-09-20T09:32:35.684Z,340
2017-09-20T09:33:35.994Z,305
2017-09-20T09:34:35.678Z,305
2017-09-20T09:35:35.687Z,310
2017-09-20T09:36:35.680Z,315
2017-09-20T09:37:35.674Z,335
2017-09-20T09:38:35.675Z,390
2017-09-20T09:39:35.976Z,430
2017-09-20T09:40:35.981Z,465
2017-09-20T09:41:35.660Z,425
2017-09-20T09:42:35.972Z,390
2017-09-20T09:43:35.975Z,360
2017-09-20T09:44:35.962Z,375
2017-09-20T09:45:35.970Z,435
2017-09-20T09:46:35.654Z,450
2017-09-20T09:47:35.662Z,440
2017-09-20T09:48:35.957Z,440
2017-09-20T09:49:35.644Z,425
2017-09-20T09:50:35.334Z,405
2017-09-20T09:51:35.647Z,410
2017-09-20T09:52:35.948Z,390
2017-09-20T09:53:35.945Z,345
2017-09-20T09:54:35.638Z,290
2017-09-20T09:55:35.637Z,245
2017-09-20T09:56:35.639Z,235
2017-09-20T09:57:35.943Z,225
2017-09-20T09:58:35.883Z,225
2017-09-20T09:59:35.621Z,255
2017-09-20T10:00:35.625Z,270
2017-09-20T10:01:35.630Z,295
2017-09-20T10:02:35.311Z,330
2017-09-20T10:03:35.313Z,355
2017-09-20T10:04:35.629Z,385
2017-09-20T10:05:35.615Z,395
2017-09-20T10:06:35.613Z,370
2017-09-20T10:07:35.918Z,355
2017-09-20T10:08:35.610Z,345
2017-09-20T10:09:35.926Z,350
2017-09-20T10:10:35.610Z,365
2017-09-20T10:11:35.607Z,370
2017-09-20T10:12:35.297Z,370
2017-09-20T10:13:35.912Z,350
2017-09-20T10:14:35.598Z,330
2017-09-20T10:15:35.593Z,290
2017-09-20T10:16:35.905Z,225
2017-09-20T10:17:35.916Z,185
2017-09-20T10:18:35.588Z,185
2017-09-20T10:19:35.593Z,215
2017-09-20T10:20:35.895Z,245
2017-09-20T10:21:35.893Z,260
2017-09-20T10:22:35.586Z,275
2017-09-20T10:23:35.896Z,290
2017-09-20T10:24:35.900Z,270
2017-09-20T10:25:35.895Z,255
2017-09-20T10:26:35.894Z,245
2017-09-20T10:27:35.889Z,235
2017-09-20T10:28:35.886Z,220
2017-09-20T10:29:36.138Z,210
2017-09-20T10:30:35.571Z,205
2017-09-20T10:31:35.882Z,225
2017-09-20T10:32:35.876Z,245
2017-09-20T10:33:35.873Z,260
2017-09-20T10:34:35.876Z,275
2017-09-20T10:35:35.865Z,285
2017-09-20T10:36:35.557Z,270
2017-09-20T10:37:35.551Z,270
2017-09-20T10:38:35.862Z,270
2017-09-20T10:39:35.556Z,280
2017-09-20T10:40:35.862Z,275
2017-09-20T10:41:35.557Z,275
2017-09-20T10:42:35.546Z,280
2017-09-20T10:43:34.926Z,285
2017-09-20T10:44:35.853Z,295
2017-09-20T10:45:35.849Z,310
2017-09-20T10:46:35.535Z,320
2017-09-20T10:47:35.851Z,335
2017-09-20T10:48:35.881Z,360
2017-09-20T10:49:35.836Z,375
2017-09-20T10:50:35.849Z,390
2017-09-20T10:51:35.219Z,430
2017-09-20T10:52:35.837Z,485
2017-09-20T10:53:35.216Z,495
2017-09-20T10:54:35.517Z,475
2017-09-20T10:55:35.517Z,430
2017-09-20T10:56:34.911Z,440
2017-09-20T10:57:35.518Z,490
2017-09-20T10:58:35.548Z,515
2017-09-20T10:59:34.895Z,515
2017-09-20T11:00:35.201Z,490
2017-09-20T11:01:36.064Z,470
2017-09-20T11:02:35.509Z,460
2017-09-20T11:03:35.821Z,445
2017-09-20T11:04:35.823Z,430
2017-09-20T11:05:35.507Z,420
2017-09-20T11:06:35.509Z,400
2017-09-20T11:07:35.506Z,385
2017-09-20T11:08:35.823Z,380
2017-09-20T11:09:35.497Z,380
2017-09-20T11:10:35.504Z,360
2017-09-20T11:11:35.190Z,350
2017-09-20T11:12:35.544Z,330
2017-09-20T11:13:35.500Z,305
2017-09-20T11:14:35.186Z,280
2017-09-20T11:15:35.188Z,245
2017-09-20T11:16:35.493Z,230
2017-09-20T11:17:35.496Z,215
2017-09-20T11:18:35.495Z,210
2017-09-20T11:19:35.500Z,200
2017-09-20T11:20:35.183Z,195
2017-09-20T11:21:35.181Z,200
2017-09-20T11:22:35.494Z,210
2017-09-20T11:23:35.492Z,240
2017-09-20T11:24:35.491Z,270
2017-09-20T11:25:35.518Z,295
2017-09-20T11:26:35.804Z,325
2017-09-20T11:27:35.490Z,350
2017-09-20T11:28:35.482Z,380
2017-09-20T11:29:35.486Z,395
2017-09-20T11:30:35.482Z,405
2017-09-20T11:31:35.476Z,410
2017-09-20T11:32:35.430Z,400
2017-09-20T11:33:35.787Z,370
2017-09-20T11:34:35.480Z,335
2017-09-20T11:35:35.471Z,290
2017-09-20T11:36:35.788Z,250
2017-09-20T11:37:35.793Z,240
2017-09-20T11:38:35.785Z,245
2017-09-20T11:39:35.786Z,255
2017-09-20T11:40:35.467Z,265
2017-09-20T11:41:35.507Z,285
2017-09-20T11:42:35.785Z,295
2017-09-20T11:43:35.467Z,310
2017-09-20T11:44:35.782Z,320
2017-09-20T11:45:35.463Z,325
2017-09-20T11:46:35.481Z,325
2017-09-20T11:47:35.459Z,325
2017-09-20T11:48:35.457Z,320
2017-09-20T11:49:35.456Z,325
2017-09-20T11:50:35.458Z,330
2017-09-20T11:51:35.765Z,360
2017-09-20T11:52:35.456Z,390
2017-09-20T11:53:35.755Z,420
2017-09-20T11:54:35.792Z,420
2017-09-20T11:55:35.765Z,415
2017-09-20T11:56:35.765Z,410
2017-09-20T11:57:35.764Z,405
2017-09-20T11:58:35.132Z,395
2017-09-20T11:59:35.744Z,390
2017-09-20T12:00:35.753Z,380
2017-09-20T12:01:35.439Z,375
2017-09-20T12:02:35.439Z,370
2017-09-20T12:03:35.999Z,360
2017-09-20T12:04:35.450Z,350
2017-09-20T12:05:35.441Z,345
2017-09-20T12:06:35.429Z,340
2017-09-20T12:07:35.736Z,335
2017-09-20T12:08:35.118Z,330
2017-09-20T12:09:35.750Z,335
2017-09-20T12:10:35.114Z,345
2017-09-20T12:11:35.111Z,345
2017-09-20T12:12:35.432Z,340
2017-09-20T12:13:35.423Z,325
2017-09-20T12:14:35.415Z,310
2017-09-20T12:15:35.420Z,300
2017-09-20T12:16:34.795Z,285
2017-09-20T12:17:35.109Z,285
2017-09-20T12:18:35.407Z,280
2017-09-20T12:19:35.416Z,280
2017-09-20T12:20:35.721Z,280
2017-09-20T12:21:35.409Z,285
2017-09-20T12:22:35.094Z,285
2017-09-20T12:23:35.407Z,300
2017-09-20T12:24:35.398Z,310
2017-09-20T12:25:35.398Z,345
2017-09-20T12:26:35.402Z,365
2017-09-20T12:27:35.393Z,405
2017-09-20T12:28:35.394Z,420
2017-09-20T12:29:35.386Z,435
2017-09-20T12:30:35.385Z,445
2017-09-20T12:31:35.383Z,450
2017-09-20T12:32:35.697Z,445
2017-09-20T12:33:35.704Z,435
2017-09-20T12:34:35.933Z,425
2017-09-20T12:35:35.689Z,425
2017-09-20T12:36:35.381Z,425
2017-09-20T12:37:35.365Z,420
2017-09-20T12:38:35.373Z,415
2017-09-20T12:39:35.369Z,415
2017-09-20T12:40:35.380Z,410
2017-09-20T12:41:35.671Z,405
2017-09-20T12:42:34.748Z,390
2017-09-20T12:43:35.380Z,375
2017-09-20T12:44:35.668Z,355
2017-09-20T12:45:35.046Z,345
2017-09-20T12:46:35.369Z,340
2017-09-20T12:47:35.670Z,340
2017-09-20T12:48:35.668Z,335
2017-09-20T12:49:35.354Z,330
2017-09-20T12:50:35.351Z,325
2017-09-20T12:51:35.352Z,315
2017-09-20T12:52:35.679Z,310
2017-09-20T12:53:35.343Z,310
2017-09-20T12:54:35.035Z,310
2017-09-20T12:55:35.034Z,310
2017-09-20T12:56:35.035Z,310
2017-09-20T12:57:35.352Z,315
2017-09-20T12:58:35.340Z,325
2017-09-20T12:59:35.030Z,325
2017-09-20T13:00:35.338Z,335
2017-09-20T13:01:35.337Z,335
2017-09-20T13:02:35.022Z,335
2017-09-20T13:03:35.335Z,345
2017-09-20T13:04:35.018Z,355
2017-09-20T13:05:35.583Z,360
2017-09-20T13:06:35.014Z,370
2017-09-20T13:07:35.319Z,380
2017-09-20T13:08:35.333Z,380
2017-09-20T13:09:35.010Z,375
2017-09-20T13:10:35.017Z,370
2017-09-20T13:11:35.009Z,365
2017-09-20T13:12:35.313Z,365
2017-09-20T13:13:35.011Z,365
2017-09-20T13:14:35.306Z,360
2017-09-20T13:15:34.999Z,360
2017-09-20T13:16:34.999Z,355
2017-09-20T13:17:35.625Z,350
2017-09-20T13:18:34.990Z,350
2017-09-20T13:19:35.304Z,345
2017-09-20T13:20:35.609Z,345
2017-09-20T13:21:34.993Z,340
2017-09-20T13:22:35.291Z,340
2017-09-20T13:23:35.600Z,340
2017-09-20T13:24:35.600Z,345
2017-09-20T13:25:35.598Z,350
2017-09-20T13:26:35.618Z,355
2017-09-20T13:27:34.987Z,360
2017-09-20T13:28:35.589Z,365
2017-09-20T13:29:35.595Z,365
2017-09-20T13:30:35.596Z,360
2017-09-20T13:31:35.588Z,360
2017-09-20T13:32:35.591Z,360
2017-09-20T13:33:35.589Z,365
2017-09-20T13:34:35.582Z,365
2017-09-20T13:35:35.577Z,365
2017-09-20T13:36:35.580Z,360
2017-09-20T13:37:35.582Z,355
2017-09-20T13:38:35.268Z,345
2017-09-20T13:39:35.573Z,340
2017-09-20T13:40:35.578Z,340
2017-09-20T13:41:34.960Z,335
2017-09-20T13:42:35.573Z,335
2017-09-20T13:43:35.564Z,330
2017-09-20T13:44:35.565Z,330
2017-09-20T13:45:35.565Z,325
2017-09-20T13:46:35.565Z,315
2017-09-20T13:47:35.562Z,305
2017-09-20T13:48:35.563Z,300
2017-09-20T13:49:35.559Z,290
2017-09-20T13:50:35.560Z,280
2017-09-20T13:51:35.556Z,275
2017-09-20T13:52:35.552Z,265
2017-09-20T13:53:35.550Z,255
2017-09-20T13:54:35.246Z,245
2017-09-20T13:55:35.578Z,235
2017-09-20T13:56:35.236Z,230
2017-09-20T13:57:35.543Z,220
2017-09-20T13:58:35.543Z,215
2017-09-20T13:59:35.554Z,205
2017-09-20T14:00:35.543Z,200
2017-09-20T14:01:35.535Z,190
2017-09-20T14:02:35.539Z,185
2017-09-20T14:03:35.541Z,185
2017-09-20T14:04:35.547Z,185
2017-09-20T14:05:35.535Z,190
2017-09-20T14:06:35.221Z,190
2017-09-20T14:07:35.214Z,195
2017-09-20T14:08:35.468Z,195